Historyczne dane pomiarowe

Dodano dane terminowe – wersja testowa.

Dane z okresu 1951-2019

Wersja bazy: 1.34 [2019-03-16, lista zmian], aktualizacja planowana na 2019-04-15

Dane meteo z obszaru Polski uzyskane na podstawie danych udostępnionych przez Instytut Meteorologii i Gospodarki Wodnej – Państwowy Instytut Badawczy.

 

Wybierz Datę:    

       

TemperaturaWilgotnośćWiatrCiśnienieOpadyŚniegCzas trwania zjawisk
 Stacja t tx tn tng RH VA  wxwx mslp ppp RRR   cm mm wxwxwxwxwxwxwx
1961-08-14 11.3 18.3 4.1--- 2.0 1.0---- 0.0------------
1961-08-13 12.4 18.6 10.9--- 8.0 2.7---- 2.0------------
1961-08-12 19.2 26.2 13.4--- 3.7 1.7---- 3.9------------
1961-08-11 24.4 31.2 16.6--- 1.7 6.3---- 0.0------------
1961-08-10 25.1 30.7 13.7--- 0.0 2.3---- 0.0------------
1961-08-09 20.7 29.1 12.9--- 3.7 0.7---- 3.6------------
1961-08-08 20.7 26.7 16.6--- 2.0 2.0---- 0.0------------
1961-08-07 22.5 27.3 18.5--- 0.3 4.7---- 0.0------------
1961-08-06 22.1 25.7 9.4--- 0.3 3.7---- 0.0------------
1961-08-05 15.4 22.7 11.3--- 2.7 0.3---- 0.0------------
1961-08-04 14.1 18.5 11.7--- 4.7 1.3---- 0.0------------
1961-08-03 17.0 22.8 7.9--- 4.7 1.7---- 0.4------------
1961-08-02 15.7 22.7 6.2--- 0.0 1.3---- 0.0------------
1961-08-01 13.7 19.1 11.0--- 4.3 2.3---- 0.0------------
1961-07-31 12.7 16.6 9.4--- 8.0 1.0---- 9.0------------
1961-07-30 10.7 12.0 9.7--- 8.0 3.7---- 12.0------------
1961-07-29 13.0 22.1 10.3--- 8.0 2.3---- 38.0------------
1961-07-28 18.4 27.1 14.1--- 2.0 3.0---- 0.5------------
1961-07-27 17.5 23.1 9.8--- 3.3 3.7---- 1.4------------
1961-07-26 14.8 19.5 4.0--- 4.7 1.0---- 0.0------------
1961-07-25 10.4 15.3 6.3--- 2.0 1.3---- 0.0------------
1961-07-24 13.8 18.7 11.7--- 6.7 2.3---- 0.0------------
1961-07-23 15.4 20.1 7.6--- 5.7 1.3---- 0.0------------
1961-07-22 13.9 17.5 9.9--- 8.0 1.0---- 6.5------------
1961-07-21 15.0 18.3 7.6--- 4.7 1.7---- 2.0------------
1961-07-20 12.5 15.9 5.5--- 8.0 1.7---- 13.8------------
1961-07-19 12.1 19.3 5.3--- 7.0 1.0---- 5.5------------
1961-07-18 12.4 19.1 7.4--- 3.0 1.3---- 0.6------------
1961-07-17 14.4 21.8 10.9--- 5.7 1.0---- 6.8------------
1961-07-16 16.8 23.2 9.6--- 4.7 2.3---- 7.7------------
1961-07-15 13.5 22.0 8.4--- 3.3 3.0---- 0.4------------
1961-07-14 12.3 17.9 9.9--- 5.7 1.3---- 4.3------------
1961-07-13 19.1 27.5 15.5--- 6.0 5.7---- 7.3------------
1961-07-12 20.1 25.7 7.9--- 1.0 4.3---- 0.0------------
1961-07-11 13.1 19.9 2.5--- 5.0 1.3---- 0.0------------
1961-07-10 13.4 19.1 10.5--- 6.7 1.7---- 0.4------------
1961-07-09 15.7 22.6 4.0--- 4.7 1.7---- 1.5------------
1961-07-08 11.5 20.6 5.9--- 1.7 0.7---- 0.0------------
1961-07-07 12.6 17.6 0.8--- 5.7 1.0---- 0.0------------
1961-07-06 8.3 17.8 4.3--- 5.3 1.3---- 1.2------------
1961-07-05 14.1 18.6 10.4--- 6.7 3.7---- 0.1------------
1961-07-04 21.7 29.1 11.5--- 4.0 1.7---- 0.1------------
1961-07-03 18.0 28.9 5.1--- 1.3 1.0---- 0.1------------
1961-07-02 15.9 25.1 6.4--- 0.3 0.7---- 0.0------------
1961-07-01 16.0 24.0 5.7--- 1.3 1.0---- 0.0------------
1961-06-30 13.2 20.1 8.5--- 4.0 1.3---- 0.0------------
1961-06-29 11.5 17.7 3.8--- 4.3 2.3---- 0.0------------
1961-06-28 13.9 21.3 9.7--- 6.7 2.3---- 6.8------------
1961-06-27 22.5 29.1 10.9--- 3.0 3.7---- 2.7------------
1961-06-26 18.6 27.7 11.5--- 2.7 2.0---- 0.0------------
1961-06-25 20.7 27.1 5.9--- 2.0 1.7---- 0.0------------
1961-06-24 15.3 25.6 6.9--- 3.7 1.0---- 0.0------------
1961-06-23 14.4 21.6 9.8--- 7.0 1.7---- 6.2------------
1961-06-22 14.9 23.8 6.1--- 3.7 1.3---- 0.9------------
1961-06-21 15.1 22.7 2.2--- 2.3 1.3---- 0.0------------
1961-06-20 12.1 18.6 6.7--- 5.3 2.3---- 0.0------------
1961-06-19 19.0 26.3 9.1--- 3.3 1.3---- 1.1------------
1961-06-18 17.1 23.7 4.6--- 2.7 3.0---- 0.0------------
1961-06-17 11.5 20.1 3.5--- 2.0 1.0---- 0.0------------
1961-06-16 10.1 17.6 5.7--- 3.3 1.3---- 0.0------------
504.9 ms

 

Źródłem pochodzenia danych jest Instytut Meteorologii i Gospodarki Wodnej – Państwowy Instytut Badawczy. Dane Instytutu Meteorologii i Gospodarki Wodnej – Państwowego Instytutu Badawczego zostały przetworzone.

Dane źródłowe można odnaleźć na stronie https://dane.imgw.pl